Airfield :
LOGIN :

Register | Disclaimer

   EN    FR    IT 

 










Legend :    VFR   Marginal VFR   IFR   Intensive IFR   Very Intensive IFR
Visi :
Ceiling :
>= 8 km
>= 3000ft
5 to 8 km
1000 to 3000 ft
1500m to 5 km
500 to 1000 ft
800 to 1500m
200 to 500 ft
< 800m
< 200 ft
Symbols :   Thunderstorms  Fog  Heavy snow  Heavy precipitations  Wind > 20 kt
SIGMETs :     Misc.  Thunderstorms  Icing  Turbulence  Mountain Waves  Volcanic Ashes






- Airport Elevation : 68 ft
- IATA code : AGH


ESTA - Ängelholm-Helsingborg

CURRENT METAR :
  • 041120Z 10010KT 9999 BKN019 OVC028 03/00 Q0996

EXPIRED METARs :
  • 041050Z 10010KT 9999 BKN031 03/M00 Q0996
  • 041020Z 10011KT 9999 BKN031 03/M01 Q0996
  • 040950Z 11011KT 9999 OVC031 02/M01 Q0997
  • 040920Z 11011KT 9999 BKN029 02/M01 Q0997
  • 040850Z 13015KT 9999 OVC024 02/M02 Q0997

TAF TAF ESTA
Valid from the 04 at 12:00 until the 04 at 20:00 UTC


041108Z 0412/0420 12012KT 9999 BKN030



MET'MAP, your aeronautical weather chart ! - Copyright ORBIFLY December 2007 - Disclaimer

ORBIFLY MET'MAP TEAM :

Programming & Development : Alexandra Zaïnal
Concept & original design : Baudouin d'Aumeries
Assistance for programming : Marc-Olivier Méhu
Technical & hardware support : Manuel Goepfert

Contact : metmap@orbifly.com




SOURCES & CREDITS :

   NOAA